LPE0021 SKBO-SKRG
Flight info
| Callsign | LPE0021 |
|---|---|
| Flight time | 0h 27m |
| Altitude | 22000 |
| Route | TOBKI4R VASIL DCT NIRSO NIRSO3C |
| Aircraft | A20N/M-SDE2E3FGHIRWXY/LB1 |
Departure
| Time | 2026-05-04 18:26 |
|---|---|
| Airport | El Dorado International Airport (SKBO) |
Arrival
| Time | 2026-05-04 18:53 |
|---|---|
| Airport | Jose Maria Córdova International Airport (SKRG) |
| Time | Latitude | Longitude | Altitude | Speed | Heading |
|---|---|---|---|---|---|
| 2026-05-04 17:53 | 4.70150 | -74.14411 | 8373 ft | 0 kts | 127° |
| 2026-05-04 18:11 | 4.70157 | -74.14419 | 8373 ft | 2 kts | 141° |
| 2026-05-04 18:11 | 4.70162 | -74.14421 | 8375 ft | 0 kts | 223° |
| 2026-05-04 18:12 | 4.70164 | -74.14420 | 8376 ft | 0 kts | 264° |
| 2026-05-04 18:12 | 4.70164 | -74.14417 | 8378 ft | 0 kts | 301° |
| 2026-05-04 18:12 | 4.70162 | -74.14414 | 8378 ft | 0 kts | 306° |
| 2026-05-04 18:17 | 4.70166 | -74.14419 | 8373 ft | 1 kts | 306° |
| 2026-05-04 18:18 | 4.70173 | -74.14429 | 8373 ft | 2 kts | 306° |
| 2026-05-04 18:18 | 4.70185 | -74.14441 | 8373 ft | 2 kts | 321° |
| 2026-05-04 18:18 | 4.70208 | -74.14453 | 8372 ft | 4 kts | 352° |
| 2026-05-04 18:18 | 4.70238 | -74.14442 | 8372 ft | 5 kts | 33° |
| 2026-05-04 18:19 | 4.70304 | -74.14393 | 8372 ft | 7 kts | 37° |
| 2026-05-04 18:19 | 4.70351 | -74.14373 | 8372 ft | 7 kts | 359° |
| 2026-05-04 18:19 | 4.70399 | -74.14400 | 8372 ft | 8 kts | 334° |
| 2026-05-04 18:20 | 4.70455 | -74.14393 | 8372 ft | 8 kts | 357° |
| 2026-05-04 18:20 | 4.70501 | -74.14429 | 8372 ft | 9 kts | 309° |
| 2026-05-04 18:20 | 4.70541 | -74.14482 | 8371 ft | 10 kts | 306° |
| 2026-05-04 18:20 | 4.70584 | -74.14541 | 8371 ft | 10 kts | 306° |
| 2026-05-04 18:21 | 4.70630 | -74.14602 | 8371 ft | 11 kts | 307° |
| 2026-05-04 18:21 | 4.70680 | -74.14668 | 8371 ft | 11 kts | 307° |
| 2026-05-04 18:21 | 4.70732 | -74.14736 | 8370 ft | 12 kts | 308° |
| 2026-05-04 18:21 | 4.70786 | -74.14808 | 8370 ft | 13 kts | 307° |
| 2026-05-04 18:22 | 4.70843 | -74.14883 | 8370 ft | 13 kts | 307° |
| 2026-05-04 18:22 | 4.70903 | -74.14961 | 8369 ft | 14 kts | 307° |
| 2026-05-04 18:22 | 4.70965 | -74.15042 | 8368 ft | 15 kts | 307° |
| 2026-05-04 18:22 | 4.71030 | -74.15129 | 8367 ft | 15 kts | 307° |
| 2026-05-04 18:23 | 4.71095 | -74.15216 | 8365 ft | 14 kts | 306° |
| 2026-05-04 18:23 | 4.71160 | -74.15302 | 8364 ft | 15 kts | 307° |
| 2026-05-04 18:23 | 4.71231 | -74.15366 | 8362 ft | 12 kts | 11° |
| 2026-05-04 18:23 | 4.71286 | -74.15325 | 8363 ft | 9 kts | 72° |
| 2026-05-04 18:24 | 4.71295 | -74.15256 | 8363 ft | 10 kts | 80° |
| 2026-05-04 18:24 | 4.71315 | -74.15190 | 8363 ft | 7 kts | 78° |
| 2026-05-04 18:24 | 4.71301 | -74.15157 | 8364 ft | 4 kts | 129° |
| 2026-05-04 18:24 | 4.71300 | -74.15156 | 8364 ft | 0 kts | 129° |
| 2026-05-04 18:25 | 4.71219 | -74.15052 | 8366 ft | 58 kts | 127° |
| 2026-05-04 18:25 | 4.70808 | -74.14503 | 8370 ft | 136 kts | 127° |
| 2026-05-04 18:26 | 4.70099 | -74.13576 | 8495 ft | 187 kts | 128° |
| 2026-05-04 18:26 | 4.69309 | -74.12518 | 9224 ft | 194 kts | 128° |
| 2026-05-04 18:26 | 4.68436 | -74.11481 | 10085 ft | 197 kts | 140° |
| 2026-05-04 18:26 | 4.67207 | -74.10819 | 10589 ft | 208 kts | 165° |
| 2026-05-04 18:27 | 4.65717 | -74.10886 | 10931 ft | 229 kts | 204° |
| 2026-05-04 18:27 | 4.64509 | -74.11978 | 11320 ft | 249 kts | 243° |
| 2026-05-04 18:27 | 4.64098 | -74.13683 | 11889 ft | 258 kts | 265° |
| 2026-05-04 18:27 | 4.63815 | -74.15465 | 12525 ft | 263 kts | 254° |
| 2026-05-04 18:28 | 4.63251 | -74.17202 | 13198 ft | 265 kts | 246° |
| 2026-05-04 18:28 | 4.62503 | -74.18897 | 13833 ft | 268 kts | 243° |
| 2026-05-04 18:28 | 4.61725 | -74.20605 | 14459 ft | 273 kts | 249° |
| 2026-05-04 18:28 | 4.61201 | -74.22452 | 14975 ft | 282 kts | 257° |
| 2026-05-04 18:29 | 4.60807 | -74.24425 | 15314 ft | 299 kts | 259° |
| 2026-05-04 18:29 | 4.60433 | -74.26574 | 15617 ft | 317 kts | 262° |
| 2026-05-04 18:29 | 4.60190 | -74.28835 | 15885 ft | 335 kts | 266° |
| 2026-05-04 18:29 | 4.60060 | -74.31207 | 16168 ft | 351 kts | 267° |
| 2026-05-04 18:30 | 4.59815 | -74.36208 | 17217 ft | 362 kts | 267° |
| 2026-05-04 18:30 | 4.59734 | -74.38718 | 17784 ft | 365 kts | 274° |
| 2026-05-04 18:30 | 4.60275 | -74.41177 | 18344 ft | 366 kts | 294° |
| 2026-05-04 18:31 | 4.61584 | -74.43362 | 18947 ft | 365 kts | 309° |
| 2026-05-04 18:31 | 4.63172 | -74.45348 | 19541 ft | 367 kts | 311° |
| 2026-05-04 18:31 | 4.64784 | -74.47323 | 20101 ft | 370 kts | 311° |
| 2026-05-04 18:31 | 4.66409 | -74.49337 | 20646 ft | 374 kts | 310° |
| 2026-05-04 18:32 | 4.68046 | -74.51395 | 21204 ft | 377 kts | 310° |
| 2026-05-04 18:32 | 4.69672 | -74.53458 | 21740 ft | 379 kts | 310° |
| 2026-05-04 18:32 | 4.71288 | -74.55515 | 22079 ft | 381 kts | 310° |
| 2026-05-04 18:32 | 4.72931 | -74.57609 | 22166 ft | 381 kts | 311° |
| 2026-05-04 18:33 | 4.74686 | -74.59589 | 22165 ft | 379 kts | 317° |
| 2026-05-04 18:33 | 4.76652 | -74.61386 | 22164 ft | 378 kts | 323° |
| 2026-05-04 18:33 | 4.78726 | -74.62978 | 22160 ft | 377 kts | 326° |
| 2026-05-04 18:33 | 4.80865 | -74.64555 | 22136 ft | 377 kts | 326° |
| 2026-05-04 18:34 | 4.82981 | -74.66110 | 22123 ft | 377 kts | 326° |
| 2026-05-04 18:34 | 4.85100 | -74.67680 | 22098 ft | 377 kts | 325° |
| 2026-05-04 18:34 | 4.87164 | -74.69283 | 22082 ft | 378 kts | 324° |
| 2026-05-04 18:34 | 4.89253 | -74.70932 | 22067 ft | 378 kts | 324° |
| 2026-05-04 18:35 | 4.91308 | -74.72553 | 22042 ft | 378 kts | 324° |
| 2026-05-04 18:35 | 4.93300 | -74.74325 | 22023 ft | 380 kts | 315° |
| 2026-05-04 18:35 | 4.94932 | -74.76418 | 22018 ft | 383 kts | 304° |
| 2026-05-04 18:35 | 4.96203 | -74.78752 | 22021 ft | 385 kts | 298° |
| 2026-05-04 18:36 | 4.97367 | -74.81162 | 22012 ft | 385 kts | 297° |
| 2026-05-04 18:36 | 4.98532 | -74.83617 | 22016 ft | 385 kts | 297° |
| 2026-05-04 18:36 | 4.99682 | -74.86024 | 22020 ft | 385 kts | 297° |
| 2026-05-04 18:36 | 5.00850 | -74.88451 | 22023 ft | 385 kts | 297° |
| 2026-05-04 18:37 | 5.02016 | -74.90861 | 22033 ft | 385 kts | 297° |
| 2026-05-04 18:37 | 5.03186 | -74.93273 | 22039 ft | 385 kts | 297° |
| 2026-05-04 18:37 | 5.04354 | -74.95677 | 22047 ft | 385 kts | 297° |
| 2026-05-04 18:37 | 5.05533 | -74.98101 | 22053 ft | 386 kts | 297° |
| 2026-05-04 18:38 | 5.06713 | -75.00527 | 22064 ft | 386 kts | 297° |
| 2026-05-04 18:38 | 5.07899 | -75.02966 | 22080 ft | 386 kts | 297° |
| 2026-05-04 18:38 | 5.09067 | -75.05370 | 22098 ft | 386 kts | 297° |
| 2026-05-04 18:38 | 5.10253 | -75.07810 | 22120 ft | 386 kts | 297° |
| 2026-05-04 18:39 | 5.11413 | -75.10199 | 22136 ft | 386 kts | 297° |
| 2026-05-04 18:39 | 5.12589 | -75.12620 | 22154 ft | 386 kts | 297° |
| 2026-05-04 18:39 | 5.13766 | -75.15042 | 22178 ft | 385 kts | 297° |
| 2026-05-04 18:39 | 5.15010 | -75.17432 | 22210 ft | 384 kts | 302° |
| 2026-05-04 18:40 | 5.16484 | -75.19673 | 22238 ft | 382 kts | 309° |
| 2026-05-04 18:40 | 5.18156 | -75.21721 | 22266 ft | 381 kts | 313° |
| 2026-05-04 18:40 | 5.19921 | -75.23715 | 22292 ft | 381 kts | 314° |
| 2026-05-04 18:40 | 5.21706 | -75.25710 | 22318 ft | 381 kts | 314° |
| 2026-05-04 18:41 | 5.23471 | -75.27689 | 22328 ft | 381 kts | 314° |
| 2026-05-04 18:41 | 5.25228 | -75.29667 | 22303 ft | 380 kts | 314° |
| 2026-05-04 18:41 | 5.26997 | -75.31667 | 21858 ft | 383 kts | 314° |
| 2026-05-04 18:41 | 5.28777 | -75.33678 | 21127 ft | 390 kts | 314° |
| 2026-05-04 18:42 | 5.30583 | -75.35721 | 20552 ft | 391 kts | 313° |
| 2026-05-04 18:42 | 5.32370 | -75.37734 | 20100 ft | 388 kts | 315° |
| 2026-05-04 18:42 | 5.34483 | -75.39386 | 19587 ft | 381 kts | 338° |
| 2026-05-04 18:42 | 5.37002 | -75.40063 | 19114 ft | 371 kts | 358° |
| 2026-05-04 18:43 | 5.39551 | -75.40189 | 18682 ft | 367 kts | 0° |
| 2026-05-04 18:43 | 5.42117 | -75.40296 | 18206 ft | 365 kts | 0° |
| 2026-05-04 18:43 | 5.44637 | -75.40411 | 17743 ft | 363 kts | 0° |
| 2026-05-04 18:43 | 5.47135 | -75.40537 | 17293 ft | 360 kts | 0° |
| 2026-05-04 18:44 | 5.49640 | -75.40667 | 16840 ft | 358 kts | 360° |
| 2026-05-04 18:44 | 5.51300 | -75.40756 | 16547 ft | 356 kts | 360° |
| 2026-05-04 18:44 | 5.54596 | -75.40935 | 15961 ft | 353 kts | 359° |
| 2026-05-04 18:44 | 5.57049 | -75.41070 | 15517 ft | 351 kts | 359° |
| 2026-05-04 18:45 | 5.59506 | -75.41206 | 15068 ft | 349 kts | 359° |
| 2026-05-04 18:45 | 5.61921 | -75.41340 | 14630 ft | 347 kts | 359° |
| 2026-05-04 18:45 | 5.64331 | -75.41474 | 14160 ft | 346 kts | 359° |
| 2026-05-04 18:45 | 5.66749 | -75.41607 | 13637 ft | 347 kts | 359° |
| 2026-05-04 18:46 | 5.69136 | -75.41741 | 13349 ft | 340 kts | 359° |
| 2026-05-04 18:46 | 5.71484 | -75.41873 | 13174 ft | 328 kts | 359° |
| 2026-05-04 18:46 | 5.73721 | -75.41999 | 13072 ft | 315 kts | 359° |
| 2026-05-04 18:46 | 5.75923 | -75.42122 | 12966 ft | 303 kts | 359° |
| 2026-05-04 18:47 | 5.77983 | -75.42198 | 12917 ft | 289 kts | 3° |
| 2026-05-04 18:47 | 5.79987 | -75.42155 | 12629 ft | 285 kts | 4° |
| 2026-05-04 18:47 | 5.81958 | -75.42088 | 12344 ft | 282 kts | 5° |
| 2026-05-04 18:47 | 5.83926 | -75.42018 | 12072 ft | 278 kts | 4° |
| 2026-05-04 18:48 | 5.85853 | -75.41955 | 11809 ft | 273 kts | 4° |
| 2026-05-04 18:48 | 5.87733 | -75.41894 | 11539 ft | 267 kts | 4° |
| 2026-05-04 18:48 | 5.89575 | -75.41840 | 11319 ft | 261 kts | 2° |
| 2026-05-04 18:48 | 5.91393 | -75.41882 | 11016 ft | 260 kts | 358° |
| 2026-05-04 18:49 | 5.93177 | -75.42026 | 10725 ft | 256 kts | 357° |
| 2026-05-04 18:49 | 5.94942 | -75.42136 | 10513 ft | 249 kts | 360° |
| 2026-05-04 18:49 | 5.96669 | -75.42186 | 10316 ft | 242 kts | 1° |
| 2026-05-04 18:49 | 5.98339 | -75.42203 | 10119 ft | 236 kts | 1° |
| 2026-05-04 18:50 | 5.99960 | -75.42210 | 9872 ft | 231 kts | 2° |
| 2026-05-04 18:50 | 6.01538 | -75.42207 | 9707 ft | 215 kts | 1° |
| 2026-05-04 18:50 | 6.03023 | -75.42220 | 9223 ft | 214 kts | 359° |
| 2026-05-04 18:50 | 6.04544 | -75.42268 | 8544 ft | 220 kts | 359° |
| 2026-05-04 18:51 | 6.05968 | -75.42313 | 8602 ft | 186 kts | 6° |
| 2026-05-04 18:51 | 6.07175 | -75.42265 | 8518 ft | 164 kts | 7° |
| 2026-05-04 18:51 | 6.08300 | -75.42145 | 8215 ft | 167 kts | 7° |
| 2026-05-04 18:51 | 6.09441 | -75.42142 | 7905 ft | 161 kts | 354° |
| 2026-05-04 18:52 | 6.10570 | -75.42393 | 7850 ft | 168 kts | 1° |
| 2026-05-04 18:52 | 6.11661 | -75.42361 | 7684 ft | 151 kts | 9° |
| 2026-05-04 18:52 | 6.12740 | -75.42264 | 7455 ft | 156 kts | 2° |
| 2026-05-04 18:52 | 6.13917 | -75.42272 | 7273 ft | 171 kts | 1° |
| 2026-05-04 18:53 | 6.15085 | -75.42299 | 6980 ft | 164 kts | 1° |
| 2026-05-04 18:53 | 6.16118 | -75.42309 | 6964 ft | 118 kts | 1° |
| 2026-05-04 18:53 | 6.16650 | -75.42309 | 6975 ft | 45 kts | 360° |
| 2026-05-04 18:53 | 6.16947 | -75.42315 | 6981 ft | 39 kts | 359° |
| 2026-05-04 18:54 | 6.17208 | -75.42314 | 6987 ft | 34 kts | 359° |
| 2026-05-04 18:54 | 6.17434 | -75.42317 | 6990 ft | 29 kts | 359° |
| 2026-05-04 18:54 | 6.17605 | -75.42318 | 6992 ft | 21 kts | 360° |
| 2026-05-04 18:54 | 6.17753 | -75.42316 | 6993 ft | 20 kts | 0° |
| 2026-05-04 18:55 | 6.17895 | -75.42320 | 6993 ft | 19 kts | 358° |
| 2026-05-04 18:55 | 6.18017 | -75.42363 | 6992 ft | 7 kts | 283° |
| 2026-05-04 18:55 | 6.18019 | -75.42382 | 6992 ft | 0 kts | 275° |
| 2026-05-04 18:56 | 6.18020 | -75.42384 | 6993 ft | 0 kts | 275° |
| 2026-05-04 18:56 | 6.18021 | -75.42425 | 6993 ft | 17 kts | 269° |
| 2026-05-04 18:56 | 6.17970 | -75.42495 | 6993 ft | 12 kts | 178° |
| 2026-05-04 18:56 | 6.17881 | -75.42492 | 6993 ft | 12 kts | 180° |
| 2026-05-04 18:57 | 6.17790 | -75.42492 | 6993 ft | 13 kts | 179° |
| 2026-05-04 18:57 | 6.17697 | -75.42491 | 6993 ft | 13 kts | 179° |
| 2026-05-04 18:57 | 6.17601 | -75.42491 | 6992 ft | 14 kts | 180° |
| 2026-05-04 18:57 | 6.17500 | -75.42489 | 6992 ft | 14 kts | 179° |
| 2026-05-04 18:58 | 6.17395 | -75.42487 | 6990 ft | 15 kts | 181° |
| 2026-05-04 18:58 | 6.17284 | -75.42489 | 6989 ft | 16 kts | 180° |
| 2026-05-04 18:58 | 6.17190 | -75.42503 | 6988 ft | 10 kts | 246° |
| 2026-05-04 18:58 | 6.17187 | -75.42575 | 6989 ft | 10 kts | 279° |
| 2026-05-04 18:59 | 6.17224 | -75.42623 | 6990 ft | 7 kts | 277° |
| 2026-05-04 18:59 | 6.17205 | -75.42679 | 6990 ft | 8 kts | 251° |
| 2026-05-04 18:59 | 6.17199 | -75.42695 | 6990 ft | 0 kts | 251° |
| 2026-05-04 18:59 | 6.17199 | -75.42696 | 6990 ft | 0 kts | 251° |